createdAt,value
2023-03-29T00:01:35.832Z,100773.56
2023-03-29T00:04:06.444Z,100774.79
2023-03-29T00:06:34.733Z,100780.68
2023-03-29T00:09:05.647Z,100779.71
2023-03-29T00:11:33.951Z,100782.48
2023-03-29T00:14:02.040Z,100783.72
2023-03-29T00:16:30.304Z,100783.48
2023-03-29T00:18:58.884Z,100787.48
2023-03-29T00:21:26.967Z,100786.35
2023-03-29T00:23:56.838Z,100785.84
2023-03-29T00:26:24.964Z,100786.18
2023-03-29T00:28:53.341Z,100784.05
2023-03-29T00:31:22.002Z,100786.88
2023-03-29T00:33:50.892Z,100787.27
2023-03-29T00:36:30.060Z,100789.90
2023-03-29T00:39:01.658Z,100797.86
2023-03-29T00:41:29.950Z,100799.55
2023-03-29T00:44:00.979Z,100797.40
2023-03-29T00:46:31.482Z,100800.60
2023-03-29T00:49:09.162Z,100802.98
2023-03-29T00:51:41.560Z,100805.75
2023-03-29T00:54:15.099Z,100807.44
2023-03-29T00:56:47.322Z,100811.28
2023-03-29T00:59:28.597Z,100809.23
2023-03-29T01:02:18.264Z,100810.54
2023-03-29T01:04:50.461Z,100811.61
2023-03-29T01:07:28.555Z,100813.44
2023-03-29T01:10:09.263Z,100813.63
2023-03-29T01:12:44.613Z,100812.36
2023-03-29T01:15:18.143Z,100811.33
2023-03-29T01:17:53.785Z,100809.15
2023-03-29T01:20:46.195Z,100811.21
2023-03-29T01:23:27.495Z,100812.06
2023-03-29T01:26:23.197Z,100813.00
2023-03-29T01:29:10.015Z,100812.52
2023-03-29T01:31:44.060Z,100812.71
2023-03-29T01:34:25.872Z,100812.34
2023-03-29T01:37:11.998Z,100811.98
2023-03-29T01:39:40.487Z,100814.50
2023-03-29T01:42:38.778Z,100816.05
2023-03-29T01:45:13.301Z,100814.66
2023-03-29T01:47:55.218Z,100820.02
2023-03-29T01:50:45.179Z,100816.14
2023-03-29T01:53:28.906Z,100818.91
2023-03-29T01:56:02.628Z,100822.73
2023-03-29T01:58:36.596Z,100819.66
2023-03-29T02:01:10.100Z,100820.35
2023-03-29T02:03:42.891Z,100819.61
2023-03-29T02:06:13.416Z,100821.46
2023-03-29T02:08:42.729Z,100819.88
2023-03-29T02:11:11.022Z,100819.92
2023-03-29T02:13:39.475Z,100823.71
2023-03-29T02:16:13.007Z,100822.50
2023-03-29T02:18:44.939Z,100827.00
2023-03-29T02:21:21.504Z,100828.34
2023-03-29T02:23:57.645Z,100829.08
2023-03-29T02:26:26.468Z,100831.11
2023-03-29T02:28:55.934Z,100837.79
2023-03-29T02:31:29.623Z,100838.48
2023-03-29T02:33:58.861Z,100839.84
2023-03-29T02:36:34.495Z,100845.45
2023-03-29T02:39:06.073Z,100846.67
2023-03-29T02:41:36.452Z,100849.16
2023-03-29T02:44:08.456Z,100851.29
2023-03-29T02:46:38.635Z,100847.82
2023-03-29T02:49:06.956Z,100852.46
2023-03-29T02:51:38.105Z,100849.21
2023-03-29T02:54:12.997Z,100849.14
2023-03-29T02:56:48.433Z,100851.61
2023-03-29T02:59:22.775Z,100855.94
2023-03-29T03:01:52.924Z,100856.15
2023-03-29T03:04:21.614Z,100858.05
2023-03-29T03:06:49.962Z,100862.52
2023-03-29T03:09:18.739Z,100862.26
2023-03-29T03:11:48.410Z,100859.94
2023-03-29T03:14:16.917Z,100865.50
2023-03-29T03:16:45.973Z,100866.37
2023-03-29T03:19:15.550Z,100876.27
2023-03-29T03:21:45.742Z,100874.42
2023-03-29T03:24:14.167Z,100877.95
2023-03-29T03:26:42.507Z,100874.89
2023-03-29T03:29:11.489Z,100873.06
2023-03-29T03:32:01.143Z,100875.45
2023-03-29T03:34:39.064Z,100877.02
2023-03-29T03:37:07.538Z,100877.07
2023-03-29T03:39:36.960Z,100877.39
2023-03-29T03:42:08.163Z,100877.45
2023-03-29T03:44:40.156Z,100879.02
2023-03-29T03:47:41.340Z,100885.26
2023-03-29T03:50:26.239Z,100886.77
2023-03-29T03:52:54.450Z,100890.66
2023-03-29T03:55:22.852Z,100889.35
2023-03-29T03:58:09.680Z,100888.93
2023-03-29T04:00:37.895Z,100892.41
2023-03-29T04:03:18.019Z,100894.34
2023-03-29T04:05:46.851Z,100900.46
2023-03-29T04:08:15.470Z,100903.89
2023-03-29T04:11:03.124Z,100907.56
2023-03-29T04:13:37.460Z,100912.23
2023-03-29T04:16:41.366Z,100914.58
2023-03-29T04:19:28.641Z,100918.56
2023-03-29T04:21:56.764Z,100920.62
2023-03-29T04:24:25.293Z,100924.77
2023-03-29T04:27:13.350Z,100925.70
2023-03-29T04:29:44.990Z,100920.11
2023-03-29T04:32:20.947Z,100915.91
2023-03-29T04:35:00.952Z,100913.90
2023-03-29T04:37:30.000Z,100916.38
2023-03-29T04:40:00.529Z,100921.48
2023-03-29T04:42:30.697Z,100923.20
2023-03-29T04:44:59.802Z,100924.83
2023-03-29T04:47:40.179Z,100925.86
2023-03-29T04:50:16.781Z,100934.34
2023-03-29T04:52:46.280Z,100929.93
2023-03-29T04:55:14.659Z,100938.77
2023-03-29T04:57:55.776Z,100937.23
2023-03-29T05:00:34.046Z,100937.50
2023-03-29T05:03:22.139Z,100942.39
2023-03-29T05:06:33.364Z,100941.40
2023-03-29T05:09:49.979Z,100945.14
2023-03-29T05:13:19.072Z,100951.63
2023-03-29T05:16:26.864Z,100955.09
2023-03-29T05:20:00.097Z,100958.38
2023-03-29T05:23:11.665Z,100958.65
2023-03-29T05:26:53.483Z,100963.16
2023-03-29T05:30:32.297Z,100958.27
2023-03-29T05:34:24.107Z,100964.77
2023-03-29T05:37:34.708Z,100966.05
2023-03-29T05:40:07.275Z,100967.28
2023-03-29T05:42:43.746Z,100968.31
2023-03-29T05:45:12.341Z,100967.63
2023-03-29T05:47:42.213Z,100966.38
2023-03-29T05:50:20.346Z,100972.31
2023-03-29T05:53:51.520Z,100972.09
2023-03-29T05:57:32.636Z,100973.17
2023-03-29T06:00:54.330Z,100982.15
2023-03-29T06:04:52.370Z,100992.36
2023-03-29T06:07:50.638Z,100992.61
2023-03-29T06:10:45.397Z,100996.34
2023-03-29T06:13:34.192Z,101003.68
2023-03-29T06:16:18.289Z,101005.60
2023-03-29T06:18:49.680Z,101012.71
2023-03-29T06:21:18.515Z,101019.85
2023-03-29T06:24:32.966Z,101026.34
2023-03-29T06:28:21.428Z,101021.48
2023-03-29T06:31:47.111Z,101024.27
2023-03-29T06:34:38.851Z,101027.65
2023-03-29T06:38:09.102Z,101021.39
2023-03-29T06:41:47.247Z,101025.39
2023-03-29T06:45:29.265Z,101029.70
2023-03-29T06:48:28.389Z,101024.48
2023-03-29T06:52:03.627Z,101022.59
2023-03-29T06:55:51.320Z,101020.99
2023-03-29T06:59:25.931Z,101023.54
2023-03-29T07:02:42.802Z,101031.52
2023-03-29T07:06:32.729Z,101040.79
2023-03-29T07:09:44.427Z,101048.08
2023-03-29T07:12:46.599Z,101044.38
2023-03-29T07:16:16.018Z,101046.61
2023-03-29T07:19:28.212Z,101044.86
2023-03-29T07:23:05.029Z,101050.77
2023-03-29T07:26:14.023Z,101057.30
2023-03-29T07:29:48.140Z,101056.27
2023-03-29T07:33:29.803Z,101059.20
2023-03-29T07:37:03.924Z,101051.59
2023-03-29T07:39:53.639Z,101062.78
2023-03-29T07:42:37.654Z,101063.31
2023-03-29T07:45:10.952Z,101058.55
2023-03-29T07:47:49.544Z,101058.21
2023-03-29T07:50:18.587Z,101057.59
2023-03-29T07:53:30.092Z,101056.39
2023-03-29T07:57:09.683Z,101055.69
2023-03-29T08:00:39.271Z,101070.29
2023-03-29T08:03:48.323Z,101081.42
2023-03-29T08:06:58.504Z,101087.95
2023-03-29T08:09:47.200Z,101083.04
2023-03-29T08:12:15.983Z,101086.52
2023-03-29T08:14:44.466Z,101086.32
2023-03-29T08:17:21.562Z,101079.74
2023-03-29T08:19:51.690Z,101083.83
2023-03-29T08:22:25.574Z,101089.55
2023-03-29T08:25:28.239Z,101099.44
2023-03-29T08:27:59.589Z,101100.48
2023-03-29T08:30:50.390Z,101104.46
2023-03-29T08:33:19.562Z,101100.90
2023-03-29T08:35:53.037Z,101097.48
2023-03-29T08:38:26.892Z,101090.95
2023-03-29T08:40:55.888Z,101096.08
2023-03-29T08:43:47.941Z,101097.56
2023-03-29T08:47:00.351Z,101093.91
2023-03-29T08:49:38.136Z,101090.04
2023-03-29T08:52:32.843Z,101095.12
2023-03-29T08:55:14.086Z,101090.97
2023-03-29T08:58:12.334Z,101083.66
2023-03-29T09:00:46.737Z,101082.15
2023-03-29T09:03:22.912Z,101077.67
2023-03-29T09:06:00.219Z,101089.20
2023-03-29T09:08:29.042Z,101111.38
2023-03-29T09:11:10.124Z,101117.90
2023-03-29T09:14:17.668Z,101122.60
2023-03-29T09:17:12.032Z,101129.77
2023-03-29T09:19:54.430Z,101127.64
2023-03-29T09:22:41.467Z,101128.13
2023-03-29T09:25:21.558Z,101130.64
2023-03-29T09:28:14.546Z,101124.21
2023-03-29T09:31:12.455Z,101118.59
2023-03-29T09:33:56.444Z,101127.35
2023-03-29T09:36:57.650Z,101120.23
2023-03-29T09:39:27.782Z,101130.60
2023-03-29T09:42:12.891Z,101138.54
2023-03-29T09:44:41.670Z,101136.27
2023-03-29T09:47:18.728Z,101127.52
2023-03-29T09:49:51.797Z,101125.23
2023-03-29T09:52:21.131Z,101131.05
2023-03-29T09:55:06.707Z,101122.74
2023-03-29T09:57:47.500Z,101128.66
2023-03-29T10:00:17.136Z,101136.15
2023-03-29T10:02:58.997Z,101143.02
2023-03-29T10:05:37.387Z,101151.43
2023-03-29T10:08:30.541Z,101153.86
2023-03-29T10:11:03.905Z,101156.23
2023-03-29T10:13:35.731Z,101150.27
2023-03-29T10:16:20.129Z,101153.00
2023-03-29T10:18:50.366Z,101149.02
2023-03-29T10:21:23.980Z,101149.89
2023-03-29T10:23:58.755Z,101144.27
2023-03-29T10:26:32.073Z,101141.14
2023-03-29T10:29:05.133Z,101141.64
2023-03-29T10:31:36.905Z,101154.86
2023-03-29T10:34:07.109Z,101155.14
2023-03-29T10:36:36.402Z,101158.69
2023-03-29T10:39:06.386Z,101160.12
2023-03-29T10:41:36.051Z,101161.42
2023-03-29T10:44:05.217Z,101157.94
2023-03-29T10:46:42.318Z,101158.83
2023-03-29T10:49:20.014Z,101148.05
2023-03-29T10:51:50.513Z,101145.94
2023-03-29T10:54:22.829Z,101139.99
2023-03-29T10:56:57.861Z,101134.75
2023-03-29T10:59:43.522Z,101128.30
2023-03-29T11:02:14.861Z,101138.08
2023-03-29T11:04:52.796Z,101143.89
2023-03-29T11:07:40.485Z,101147.90
2023-03-29T11:10:28.496Z,101149.56
2023-03-29T11:13:12.054Z,101154.81
2023-03-29T11:16:02.707Z,101157.60
2023-03-29T11:19:04.067Z,101149.27
2023-03-29T11:21:40.942Z,101150.55
2023-03-29T11:24:27.461Z,101140.09
2023-03-29T11:27:29.853Z,101137.60
2023-03-29T11:30:18.304Z,101137.92
2023-03-29T11:33:24.550Z,101135.54
2023-03-29T11:36:13.874Z,101136.63
2023-03-29T11:39:01.007Z,101132.83
2023-03-29T11:41:38.399Z,101134.59
2023-03-29T11:44:33.508Z,101133.48
2023-03-29T11:47:19.288Z,101146.73
2023-03-29T11:49:57.629Z,101155.56
2023-03-29T11:52:49.297Z,101154.47
2023-03-29T11:55:23.803Z,101146.52
2023-03-29T11:57:56.688Z,101140.99
2023-03-29T12:00:37.680Z,101134.85
2023-03-29T12:03:06.999Z,101127.67
2023-03-29T12:05:58.994Z,101127.23
2023-03-29T12:08:42.696Z,101127.80
2023-03-29T12:11:24.650Z,101127.00
2023-03-29T12:14:05.188Z,101128.17
2023-03-29T12:16:41.979Z,101130.08
2023-03-29T12:19:26.125Z,101133.06
2023-03-29T12:21:57.368Z,101136.90
2023-03-29T12:24:31.956Z,101137.57
2023-03-29T12:27:28.637Z,101148.08
2023-03-29T12:30:27.526Z,101145.30
2023-03-29T12:33:17.548Z,101146.38
2023-03-29T12:36:19.622Z,101147.55
2023-03-29T12:39:21.686Z,101149.36
2023-03-29T12:42:24.003Z,101150.02
2023-03-29T12:45:48.351Z,101147.45
2023-03-29T12:48:24.708Z,101145.91
2023-03-29T12:51:02.107Z,101138.20
2023-03-29T12:53:39.053Z,101138.07
2023-03-29T12:56:16.999Z,101128.05
2023-03-29T12:59:17.893Z,101123.84
2023-03-29T13:02:00.178Z,101118.95
2023-03-29T13:04:56.544Z,101121.63
2023-03-29T13:07:27.501Z,101124.31
2023-03-29T13:09:58.888Z,101124.92
2023-03-29T13:12:35.960Z,101123.98
2023-03-29T13:15:35.234Z,101126.35
2023-03-29T13:18:18.818Z,101131.48
2023-03-29T13:20:59.913Z,101141.50
2023-03-29T13:23:51.740Z,101137.91
2023-03-29T13:26:28.624Z,101129.74
2023-03-29T13:29:34.677Z,101128.88
2023-03-29T13:32:29.080Z,101129.56
2023-03-29T13:35:41.721Z,101135.52
2023-03-29T13:38:16.715Z,101130.90
2023-03-29T13:40:54.268Z,101134.92
2023-03-29T13:43:34.796Z,101135.26
2023-03-29T13:46:06.895Z,101139.40
2023-03-29T13:48:35.370Z,101138.04
2023-03-29T13:51:08.399Z,101134.21
2023-03-29T13:53:46.027Z,101133.24
2023-03-29T13:56:25.759Z,101134.84
2023-03-29T13:59:03.838Z,101137.71
2023-03-29T14:01:49.471Z,101142.38
2023-03-29T14:04:24.936Z,101141.52
2023-03-29T14:06:56.415Z,101143.81
2023-03-29T14:09:31.882Z,101146.25
2023-03-29T14:12:01.365Z,101150.14
2023-03-29T14:14:32.301Z,101144.45
2023-03-29T14:17:01.437Z,101149.37
2023-03-29T14:19:38.213Z,101151.65
2023-03-29T14:22:14.668Z,101157.85
2023-03-29T14:24:51.804Z,101154.29
2023-03-29T14:27:22.145Z,101161.15
2023-03-29T14:29:52.559Z,101162.52
2023-03-29T14:32:29.362Z,101162.91
2023-03-29T14:34:58.844Z,101171.98
2023-03-29T14:37:29.921Z,101173.36
2023-03-29T14:39:59.583Z,101170.63
2023-03-29T14:42:29.258Z,101172.40
2023-03-29T14:45:09.446Z,101171.15
2023-03-29T14:47:40.671Z,101167.88
2023-03-29T14:50:30.987Z,101169.16
2023-03-29T14:53:01.869Z,101167.77
2023-03-29T14:55:31.153Z,101161.95
2023-03-29T14:58:00.621Z,101164.02
2023-03-29T15:00:42.631Z,101163.23
2023-03-29T15:03:15.555Z,101162.13
2023-03-29T15:06:02.070Z,101160.66
2023-03-29T15:08:31.046Z,101162.21
2023-03-29T15:10:59.962Z,101159.55
2023-03-29T15:13:29.822Z,101153.81
2023-03-29T15:16:02.137Z,101153.08
2023-03-29T15:18:35.617Z,101156.39
2023-03-29T15:21:04.912Z,101157.98
2023-03-29T15:23:39.599Z,101156.88
2023-03-29T15:26:26.412Z,101155.80
2023-03-29T15:29:10.394Z,101159.86
2023-03-29T15:31:41.923Z,101161.05
2023-03-29T15:34:26.497Z,101162.70
2023-03-29T15:36:57.434Z,101167.09
2023-03-29T15:39:29.548Z,101168.55
2023-03-29T15:41:58.516Z,101171.15
2023-03-29T15:44:29.525Z,101168.10
2023-03-29T15:47:00.094Z,101170.67
2023-03-29T15:49:28.543Z,101171.75
2023-03-29T15:51:56.854Z,101172.75
2023-03-29T15:54:25.215Z,101173.96
2023-03-29T15:56:57.233Z,101175.74
2023-03-29T15:59:25.720Z,101173.06
2023-03-29T16:01:54.767Z,101177.52
2023-03-29T16:04:23.097Z,101177.33
2023-03-29T16:06:53.641Z,101175.52
2023-03-29T16:09:22.931Z,101179.20
2023-03-29T16:11:51.536Z,101181.56
2023-03-29T16:14:27.476Z,101182.37
2023-03-29T16:16:58.827Z,101186.45
2023-03-29T16:19:28.408Z,101191.19
2023-03-29T16:21:57.122Z,101191.94
2023-03-29T16:24:28.020Z,101194.06
2023-03-29T16:26:56.855Z,101196.88
2023-03-29T16:29:26.074Z,101202.91
2023-03-29T16:31:55.009Z,101202.99
2023-03-29T16:34:24.027Z,101201.81
2023-03-29T16:36:53.177Z,101208.04
2023-03-29T16:39:21.791Z,101210.61
2023-03-29T16:41:50.459Z,101214.20
2023-03-29T16:44:23.941Z,101215.39
2023-03-29T16:46:57.987Z,101217.91
2023-03-29T16:49:26.287Z,101220.35
2023-03-29T16:51:54.441Z,101225.28
2023-03-29T16:54:25.962Z,101231.88
2023-03-29T16:56:54.324Z,101240.73
2023-03-29T16:59:23.031Z,101241.58
2023-03-29T17:01:51.164Z,101244.80
2023-03-29T17:04:19.527Z,101247.59
2023-03-29T17:06:47.785Z,101247.58
2023-03-29T17:09:17.834Z,101246.01
2023-03-29T17:11:46.434Z,101251.55
2023-03-29T17:14:14.759Z,101253.29
2023-03-29T17:16:42.878Z,101253.70
2023-03-29T17:19:11.433Z,101260.88
2023-03-29T17:21:39.851Z,101265.11
2023-03-29T17:24:09.871Z,101268.73
2023-03-29T17:26:38.382Z,101273.85
2023-03-29T17:29:06.524Z,101276.60
2023-03-29T17:31:36.390Z,101275.02
2023-03-29T17:34:04.512Z,101274.59
2023-03-29T17:36:33.925Z,101277.95
2023-03-29T17:39:02.965Z,101277.66
2023-03-29T17:41:31.550Z,101280.34
2023-03-29T17:44:03.421Z,101286.70
2023-03-29T17:46:32.470Z,101289.27
2023-03-29T17:49:00.662Z,101288.61
2023-03-29T17:51:28.820Z,101295.10
2023-03-29T17:53:57.325Z,101297.22
2023-03-29T17:56:26.489Z,101298.39
2023-03-29T17:58:55.722Z,101304.07
2023-03-29T18:01:24.789Z,101303.61
2023-03-29T18:03:52.996Z,101307.66
2023-03-29T18:06:21.445Z,101306.84
2023-03-29T18:08:49.774Z,101316.42
2023-03-29T18:11:22.854Z,101318.70
2023-03-29T18:13:51.527Z,101317.69
2023-03-29T18:16:22.114Z,101323.61
2023-03-29T18:18:50.977Z,101322.17
2023-03-29T18:21:19.449Z,101323.17
2023-03-29T18:23:49.319Z,101327.30
2023-03-29T18:26:18.228Z,101327.25
2023-03-29T18:28:47.420Z,101327.41
2023-03-29T18:31:16.387Z,101328.29
2023-03-29T18:33:44.662Z,101332.10
2023-03-29T18:36:13.820Z,101334.16
2023-03-29T18:38:43.906Z,101323.70
2023-03-29T18:41:14.180Z,101322.73
2023-03-29T18:43:43.319Z,101323.37
2023-03-29T18:46:11.532Z,101327.89
2023-03-29T18:48:41.228Z,101331.86
2023-03-29T18:51:11.941Z,101336.66
2023-03-29T18:53:42.168Z,101343.90
2023-03-29T18:56:11.339Z,101347.58
2023-03-29T18:58:39.628Z,101346.77
2023-03-29T19:01:07.842Z,101344.41
2023-03-29T19:03:37.283Z,101346.92
2023-03-29T19:06:06.566Z,101347.84
2023-03-29T19:08:36.840Z,101348.98
2023-03-29T19:11:07.580Z,101344.24
2023-03-29T19:13:36.478Z,101345.55
2023-03-29T19:16:08.344Z,101348.05
2023-03-29T19:18:37.701Z,101346.46
2023-03-29T19:21:05.843Z,101343.48
2023-03-29T19:23:34.571Z,101346.50
2023-03-29T19:26:05.768Z,101346.45
2023-03-29T19:28:34.238Z,101345.38
2023-03-29T19:31:04.378Z,101348.36
2023-03-29T19:33:33.058Z,101349.14
2023-03-29T19:36:01.752Z,101345.46
2023-03-29T19:38:30.278Z,101342.67
2023-03-29T19:40:58.585Z,101342.85
2023-03-29T19:43:27.792Z,101343.82
2023-03-29T19:45:55.898Z,101341.52
2023-03-29T19:48:24.780Z,101349.34
2023-03-29T19:50:53.230Z,101349.75
2023-03-29T19:53:23.272Z,101351.73
2023-03-29T19:55:52.566Z,101350.86
2023-03-29T19:58:21.891Z,101350.95
2023-03-29T20:00:51.058Z,101347.70
2023-03-29T20:03:21.935Z,101350.88
2023-03-29T20:05:51.064Z,101348.88
2023-03-29T20:08:19.237Z,101347.24
2023-03-29T20:10:47.491Z,101341.98
2023-03-29T20:13:31.529Z,101339.63
2023-03-29T20:16:08.221Z,101335.27
2023-03-29T20:18:40.390Z,101340.98
2023-03-29T20:21:10.003Z,101342.23
2023-03-29T20:23:43.793Z,101340.72
2023-03-29T20:26:12.283Z,101340.10
2023-03-29T20:28:40.625Z,101340.57
2023-03-29T20:31:12.497Z,101339.52
2023-03-29T20:33:44.689Z,101343.80
2023-03-29T20:36:13.414Z,101341.25
2023-03-29T20:38:41.781Z,101340.91
2023-03-29T20:41:11.036Z,101340.44
2023-03-29T20:43:41.006Z,101342.20
2023-03-29T20:46:24.170Z,101341.86
2023-03-29T20:48:56.234Z,101345.80
2023-03-29T20:51:32.243Z,101342.46
2023-03-29T20:54:02.843Z,101340.34
2023-03-29T20:56:40.158Z,101338.03
2023-03-29T20:59:12.364Z,101336.87
2023-03-29T21:01:41.165Z,101339.98
2023-03-29T21:04:10.962Z,101342.06
2023-03-29T21:06:42.387Z,101336.50
2023-03-29T21:09:10.547Z,101336.64
2023-03-29T21:11:39.362Z,101337.73
2023-03-29T21:14:07.563Z,101336.45
2023-03-29T21:16:54.598Z,101333.64
2023-03-29T21:19:25.407Z,101327.59
2023-03-29T21:21:55.148Z,101331.14
2023-03-29T21:24:23.355Z,101329.34
2023-03-29T21:26:51.541Z,101329.54
2023-03-29T21:29:19.743Z,101326.70
2023-03-29T21:31:47.998Z,101325.19
2023-03-29T21:34:16.720Z,101322.25
2023-03-29T21:36:45.098Z,101320.29
2023-03-29T21:39:13.476Z,101327.14
2023-03-29T21:41:41.723Z,101326.51
2023-03-29T21:44:10.136Z,101327.21
2023-03-29T21:46:38.344Z,101325.03
2023-03-29T21:49:06.987Z,101328.24
2023-03-29T21:51:35.869Z,101325.36
2023-03-29T21:54:12.222Z,101322.39
2023-03-29T21:56:46.115Z,101323.41
2023-03-29T21:59:15.568Z,101320.23
2023-03-29T22:01:58.732Z,101319.64
2023-03-29T22:04:37.110Z,101320.80
2023-03-29T22:07:10.825Z,101321.51
2023-03-29T22:09:41.692Z,101320.55
2023-03-29T22:12:10.160Z,101319.55
2023-03-29T22:14:38.296Z,101317.26
2023-03-29T22:17:07.173Z,101317.64
2023-03-29T22:19:39.740Z,101322.95
2023-03-29T22:22:13.981Z,101321.81
2023-03-29T22:24:42.573Z,101317.80
2023-03-29T22:27:12.200Z,101318.65
2023-03-29T22:29:40.380Z,101317.39
2023-03-29T22:32:08.581Z,101311.45
2023-03-29T22:34:37.059Z,101311.66
2023-03-29T22:37:05.516Z,101317.27
2023-03-29T22:39:37.533Z,101319.37
2023-03-29T22:42:05.810Z,101317.63
2023-03-29T22:44:34.161Z,101316.73
2023-03-29T22:47:02.282Z,101316.02
2023-03-29T22:49:31.127Z,101314.75
2023-03-29T22:52:01.455Z,101314.84
2023-03-29T22:54:30.037Z,101310.41
2023-03-29T22:56:58.648Z,101307.95
2023-03-29T22:59:27.402Z,101312.17
2023-03-29T23:01:55.641Z,101313.89
2023-03-29T23:04:23.830Z,101320.50
2023-03-29T23:06:52.006Z,101322.40
2023-03-29T23:09:20.198Z,101320.94
2023-03-29T23:11:48.409Z,101322.75
2023-03-29T23:14:16.667Z,101321.13
2023-03-29T23:16:46.380Z,101315.31
2023-03-29T23:19:14.833Z,101317.06
2023-03-29T23:21:42.898Z,101322.13
2023-03-29T23:24:11.255Z,101318.65
2023-03-29T23:26:39.374Z,101318.63
2023-03-29T23:29:07.865Z,101318.55
2023-03-29T23:31:37.951Z,101319.76
2023-03-29T23:34:06.396Z,101321.23
2023-03-29T23:36:34.871Z,101321.70
2023-03-29T23:39:03.418Z,101322.13
2023-03-29T23:41:31.518Z,101318.19
2023-03-29T23:43:59.972Z,101317.65
2023-03-29T23:46:28.265Z,101318.83
2023-03-29T23:48:56.920Z,101318.04
2023-03-29T23:51:28.351Z,101320.60
2023-03-29T23:53:57.053Z,101324.70
2023-03-29T23:56:25.357Z,101321.15
2023-03-29T23:58:53.726Z,101320.42
